• Join FlightAware (Why Join?)
  • Login
  • US Flag 
10:06AM EDT


 

Airport Tracker/Info


-or-


 

Live Flight TrackerFlight Track Log ✈ RPA4937 ✈ 02-May-2013 ✈ KBWI - KEWR

Flight Track Log - Related Links

Times and Time Zones

All times are in EDT time to prevent confusion due to time zone crossing. See the RPA4937 flight status page for this flight to view local times or setup timezone preferences in your user account.

Time Position Orientation Groundspeed Altitude Reporting Facility
EDT Latitude Longitude Course Direction KTS MPH feet Rate Location/Type
07:23AM 39.1667 -76.6333 38° Northeast 162 186 1,200  Level Potomac TRACON
07:24AM 39.1667 -76.5833 90° East 182 209 4,000 2,760 Climbing Potomac TRACON
07:25AM 39.1667 -76.5167 90° East 188 216 6,600 2,700 Climbing Potomac TRACON
07:26AM 39.1500 -76.3034 90° East  Level FlightAware Approximate
07:26AM 39.1833 -76.4500 72° East 197 227 9,000  Level Potomac TRACON
07:27AM 39.1696 -76.1905 46° Northeast  Level FlightAware Approximate
07:27AM 39.1833 -76.3833 90° East 218 251 11,000  Level Potomac TRACON
07:28AM 39.2410 -76.1090 38° Northeast  Level FlightAware Approximate
07:28AM 39.2000 -76.3000 76° East 285 328 11,100  Level Potomac TRACON
07:29AM 39.2667 -76.2167 44° Northeast 317 365 11,000  Descending Potomac TRACON
07:31AM 39.3500 -76.1000 47° Northeast 309 356 11,100  Climbing Philadelphia TRACON
07:32AM 39.4167 -76.0167 44° Northeast 308 354 11,000 -60 Descending Philadelphia TRACON
07:32AM 39.4500 -75.9500 57° Northeast 308 354 11,000  Level Philadelphia TRACON
07:33AM 39.5167 -75.8500 49° Northeast 308 354 11,000  Level Philadelphia TRACON
07:34AM 39.5667 -75.7833 46° Northeast 308 354 11,000  Level Philadelphia TRACON
07:35AM 39.6333 -75.6833 49° Northeast 307 353 11,000  Level Philadelphia TRACON
07:36AM 39.6833 -75.6000 52° Northeast 307 353 11,000  Level Philadelphia TRACON
07:37AM 39.7167 -75.4833 70° East 310 357 11,000 -240 Level Philadelphia TRACON
07:39AM 39.7500 -75.3833 67° East 314 361 10,500 -480 Descending Philadelphia TRACON
07:40AM 39.7833 -75.2667 70° East 298 343 10,000 -300 Descending Philadelphia TRACON
07:41AM 39.8000 -75.1833 75° East 284 327 10,000  Level Philadelphia TRACON
07:41AM 39.8333 -75.0833 67° East 284 327 10,000  Level Philadelphia TRACON
07:43AM 39.8667 -74.9833 66° East 305 351 10,000  Level Philadelphia TRACON
07:43AM 39.9167 -74.9000 52° Northeast 287 330 10,000 -600 Level Philadelphia TRACON
07:44AM 39.9667 -74.8500 37° Northeast 269 310 9,000 -1,320 Descending Philadelphia TRACON
07:45AM 40.0000 -74.8000 49° Northeast 261 300 8,000 -1,200 Descending New York TRACON
07:46AM 40.0333 -74.7333 57° Northeast 246 283 7,100 -540 Descending New York TRACON
07:47AM 40.0833 -74.6667 46° Northeast 250 288 7,000 -60 Descending New York TRACON
07:48AM 40.1333 -74.6000 46° Northeast 253 291 7,000  Level New York TRACON
07:49AM 40.2000 -74.6167 349° North 257 296 7,000  Level New York TRACON
07:50AM 40.2667 -74.6167 360° North 260 299 7,000  Level New York TRACON
07:51AM 40.3333 -74.6333 349° North 257 296 7,000  Level New York TRACON
07:52AM 40.4000 -74.6333 360° North 260 299 7,000 -60 Level New York TRACON
07:53AM 40.4667 -74.6500 349° North 234 269 6,900 -540 Descending New York TRACON
07:54AM 40.5333 -74.6500 360° North 225 259 6,000 -600 Descending New York TRACON
07:55AM 40.5167 -74.5833 108° East 229 264 5,800 -1,020 Descending New York TRACON
07:56AM 40.4667 -74.5500 153° Southeast 212 244 4,100 -1,320 Descending New York TRACON
07:57AM 40.4167 -74.5167 153° Southeast 210 242 3,300 -600 Descending New York TRACON
07:58AM 40.3833 -74.4667 131° Southeast 204 235 3,000 -180 Descending New York TRACON
07:59AM 40.3833 -74.4000 90° East 207 238 3,000  Level New York TRACON
08:00AM 40.4333 -74.3500 37° Northeast 209 241 3,000  Level New York TRACON
08:00AM 40.4667 -74.3000 49° Northeast 193 222 3,000  Level New York TRACON
08:01AM 40.5167 -74.2833 14° North 169 194 3,000 -120 Level New York TRACON
08:02AM 40.5500 -74.2500 37° Northeast 171 197 2,800 -600 Descending New York TRACON
08:03AM 40.6000 -74.2167 27° Northeast 171 197 1,900 -900 Descending New York TRACON
08:04AM 40.6333 -74.2000 21° North 136 157 1,000 -840 Descending New York TRACON
08:05AM 40.6667 -74.1833 21° North 119 137 300 -720 Descending New York TRACON